sensor_id;sensor_type;location;lat;lon;timestamp;P1;durP1;ratioP1;P2;durP2;ratioP2
65599;SDS011;52272;-29.642;-50.764;2022-08-25T00:00:30;12.90;;;5.00;;
65599;SDS011;52272;-29.642;-50.764;2022-08-25T00:03:01;10.65;;;5.25;;
65599;SDS011;52272;-29.642;-50.764;2022-08-25T00:05:33;11.02;;;4.80;;
65599;SDS011;52272;-29.642;-50.764;2022-08-25T00:08:03;11.50;;;5.20;;
65599;SDS011;52272;-29.642;-50.764;2022-08-25T00:10:35;8.75;;;4.68;;
65599;SDS011;52272;-29.642;-50.764;2022-08-25T00:13:08;8.38;;;4.95;;
65599;SDS011;52272;-29.642;-50.764;2022-08-25T00:15:39;11.13;;;4.55;;
65599;SDS011;52272;-29.642;-50.764;2022-08-25T00:18:11;8.38;;;4.82;;
65599;SDS011;52272;-29.642;-50.764;2022-08-25T00:20:47;5.68;;;4.55;;
65599;SDS011;52272;-29.642;-50.764;2022-08-25T00:23:18;8.35;;;4.13;;
65599;SDS011;52272;-29.642;-50.764;2022-08-25T00:25:48;8.48;;;4.05;;
65599;SDS011;52272;-29.642;-50.764;2022-08-25T00:28:25;10.13;;;4.53;;
65599;SDS011;52272;-29.642;-50.764;2022-08-25T00:30:55;7.63;;;4.80;;
65599;SDS011;52272;-29.642;-50.764;2022-08-25T00:33:27;9.25;;;4.85;;
65599;SDS011;52272;-29.642;-50.764;2022-08-25T00:36:01;6.90;;;4.47;;
65599;SDS011;52272;-29.642;-50.764;2022-08-25T00:38:32;12.20;;;5.00;;
65599;SDS011;52272;-29.642;-50.764;2022-08-25T00:41:04;10.75;;;5.25;;
65599;SDS011;52272;-29.642;-50.764;2022-08-25T00:46:24;8.65;;;5.30;;
65599;SDS011;52272;-29.642;-50.764;2022-08-25T00:49:02;9.80;;;5.18;;
65599;SDS011;52272;-29.642;-50.764;2022-08-25T00:52:09;9.48;;;4.82;;
65599;SDS011;52272;-29.642;-50.764;2022-08-25T00:57:22;7.82;;;4.97;;
65599;SDS011;52272;-29.642;-50.764;2022-08-25T01:00:04;12.80;;;5.15;;
65599;SDS011;52272;-29.642;-50.764;2022-08-25T01:02:45;9.05;;;4.85;;
65599;SDS011;52272;-29.642;-50.764;2022-08-25T01:05:16;7.78;;;4.97;;
65599;SDS011;52272;-29.642;-50.764;2022-08-25T01:07:47;9.80;;;4.97;;
65599;SDS011;52272;-29.642;-50.764;2022-08-25T01:10:19;10.60;;;5.50;;
65599;SDS011;52272;-29.642;-50.764;2022-08-25T01:12:50;10.05;;;4.70;;
65599;SDS011;52272;-29.642;-50.764;2022-08-25T01:15:25;9.00;;;5.10;;
65599;SDS011;52272;-29.642;-50.764;2022-08-25T01:17:57;8.07;;;4.78;;
65599;SDS011;52272;-29.642;-50.764;2022-08-25T01:20:29;7.63;;;5.20;;
65599;SDS011;52272;-29.642;-50.764;2022-08-25T01:23:00;11.95;;;5.32;;
65599;SDS011;52272;-29.642;-50.764;2022-08-25T01:28:12;9.23;;;5.18;;
65599;SDS011;52272;-29.642;-50.764;2022-08-25T01:33:11;6.63;;;4.18;;
65599;SDS011;52272;-29.642;-50.764;2022-08-25T01:35:42;8.68;;;4.90;;
65599;SDS011;52272;-29.642;-50.764;2022-08-25T01:38:13;7.40;;;4.75;;
65599;SDS011;52272;-29.642;-50.764;2022-08-25T01:40:44;8.63;;;5.28;;
65599;SDS011;52272;-29.642;-50.764;2022-08-25T01:45:51;10.18;;;5.15;;
65599;SDS011;52272;-29.642;-50.764;2022-08-25T01:48:21;8.77;;;5.45;;
65599;SDS011;52272;-29.642;-50.764;2022-08-25T01:53:22;8.93;;;5.45;;
65599;SDS011;52272;-29.642;-50.764;2022-08-25T01:55:52;10.50;;;5.75;;
65599;SDS011;52272;-29.642;-50.764;2022-08-25T01:58:38;11.02;;;5.53;;
65599;SDS011;52272;-29.642;-50.764;2022-08-25T02:01:16;12.30;;;6.43;;
65599;SDS011;52272;-29.642;-50.764;2022-08-25T02:03:50;12.00;;;6.30;;
65599;SDS011;52272;-29.642;-50.764;2022-08-25T02:06:26;9.50;;;5.18;;
65599;SDS011;52272;-29.642;-50.764;2022-08-25T02:09:02;11.57;;;5.70;;
65599;SDS011;52272;-29.642;-50.764;2022-08-25T02:11:36;13.00;;;5.22;;
65599;SDS011;52272;-29.642;-50.764;2022-08-25T02:14:08;12.57;;;5.88;;
65599;SDS011;52272;-29.642;-50.764;2022-08-25T02:16:40;9.88;;;5.85;;
65599;SDS011;52272;-29.642;-50.764;2022-08-25T02:19:15;10.98;;;5.68;;
65599;SDS011;52272;-29.642;-50.764;2022-08-25T02:21:46;9.50;;;5.35;;
65599;SDS011;52272;-29.642;-50.764;2022-08-25T02:24:16;10.30;;;6.50;;
65599;SDS011;52272;-29.642;-50.764;2022-08-25T02:26:47;11.20;;;6.50;;
65599;SDS011;52272;-29.642;-50.764;2022-08-25T02:29:18;10.48;;;5.85;;
65599;SDS011;52272;-29.642;-50.764;2022-08-25T02:31:49;12.10;;;6.18;;
65599;SDS011;52272;-29.642;-50.764;2022-08-25T02:34:19;9.80;;;6.10;;
65599;SDS011;52272;-29.642;-50.764;2022-08-25T02:36:50;14.40;;;6.10;;
65599;SDS011;52272;-29.642;-50.764;2022-08-25T02:41:49;10.43;;;6.00;;
65599;SDS011;52272;-29.642;-50.764;2022-08-25T02:44:20;11.82;;;6.22;;
65599;SDS011;52272;-29.642;-50.764;2022-08-25T02:46:50;11.98;;;6.47;;
65599;SDS011;52272;-29.642;-50.764;2022-08-25T02:49:20;9.10;;;5.95;;
65599;SDS011;52272;-29.642;-50.764;2022-08-25T02:54:20;12.15;;;6.35;;
65599;SDS011;52272;-29.642;-50.764;2022-08-25T02:56:51;10.90;;;6.13;;
65599;SDS011;52272;-29.642;-50.764;2022-08-25T02:59:21;8.70;;;6.05;;
65599;SDS011;52272;-29.642;-50.764;2022-08-25T03:01:52;10.45;;;5.80;;
65599;SDS011;52272;-29.642;-50.764;2022-08-25T03:04:22;7.70;;;5.53;;
65599;SDS011;52272;-29.642;-50.764;2022-08-25T03:06:53;11.35;;;5.82;;
65599;SDS011;52272;-29.642;-50.764;2022-08-25T03:09:23;9.20;;;5.50;;
65599;SDS011;52272;-29.642;-50.764;2022-08-25T03:11:55;6.50;;;5.05;;
65599;SDS011;52272;-29.642;-50.764;2022-08-25T03:14:25;12.20;;;5.90;;
65599;SDS011;52272;-29.642;-50.764;2022-08-25T03:16:55;8.27;;;5.82;;
65599;SDS011;52272;-29.642;-50.764;2022-08-25T03:19:26;9.65;;;5.95;;
65599;SDS011;52272;-29.642;-50.764;2022-08-25T03:21:56;8.23;;;5.88;;
65599;SDS011;52272;-29.642;-50.764;2022-08-25T03:24:27;9.30;;;5.25;;
65599;SDS011;52272;-29.642;-50.764;2022-08-25T03:26:57;9.32;;;5.85;;
65599;SDS011;52272;-29.642;-50.764;2022-08-25T03:29:30;9.35;;;6.38;;
65599;SDS011;52272;-29.642;-50.764;2022-08-25T03:32:01;10.35;;;5.90;;
65599;SDS011;52272;-29.642;-50.764;2022-08-25T03:34:32;13.70;;;5.97;;
65599;SDS011;52272;-29.642;-50.764;2022-08-25T03:37:02;12.80;;;6.20;;
65599;SDS011;52272;-29.642;-50.764;2022-08-25T03:39:34;9.93;;;6.15;;
65599;SDS011;52272;-29.642;-50.764;2022-08-25T03:44:33;8.88;;;6.25;;
65599;SDS011;52272;-29.642;-50.764;2022-08-25T03:47:04;9.48;;;6.15;;
65599;SDS011;52272;-29.642;-50.764;2022-08-25T03:49:34;11.30;;;6.38;;
65599;SDS011;52272;-29.642;-50.764;2022-08-25T03:52:04;11.68;;;6.28;;
65599;SDS011;52272;-29.642;-50.764;2022-08-25T03:57:04;10.23;;;6.03;;
65599;SDS011;52272;-29.642;-50.764;2022-08-25T03:59:35;13.23;;;6.15;;
65599;SDS011;52272;-29.642;-50.764;2022-08-25T04:02:06;11.10;;;6.13;;
65599;SDS011;52272;-29.642;-50.764;2022-08-25T04:04:37;10.38;;;5.90;;
65599;SDS011;52272;-29.642;-50.764;2022-08-25T04:07:08;10.50;;;5.47;;
65599;SDS011;52272;-29.642;-50.764;2022-08-25T04:09:39;10.18;;;6.00;;
65599;SDS011;52272;-29.642;-50.764;2022-08-25T04:12:09;8.98;;;6.28;;
65599;SDS011;52272;-29.642;-50.764;2022-08-25T04:14:40;9.50;;;6.40;;
65599;SDS011;52272;-29.642;-50.764;2022-08-25T04:17:10;10.27;;;5.75;;
65599;SDS011;52272;-29.642;-50.764;2022-08-25T04:19:41;10.52;;;6.35;;
65599;SDS011;52272;-29.642;-50.764;2022-08-25T04:22:11;11.05;;;5.95;;
65599;SDS011;52272;-29.642;-50.764;2022-08-25T04:24:42;10.57;;;6.15;;
65599;SDS011;52272;-29.642;-50.764;2022-08-25T04:27:13;9.95;;;6.55;;
65599;SDS011;52272;-29.642;-50.764;2022-08-25T04:29:44;9.68;;;6.53;;
65599;SDS011;52272;-29.642;-50.764;2022-08-25T04:32:15;11.82;;;6.63;;
65599;SDS011;52272;-29.642;-50.764;2022-08-25T04:34:45;10.90;;;6.68;;
65599;SDS011;52272;-29.642;-50.764;2022-08-25T04:37:16;8.93;;;6.75;;
65599;SDS011;52272;-29.642;-50.764;2022-08-25T04:39:46;11.27;;;7.05;;
65599;SDS011;52272;-29.642;-50.764;2022-08-25T04:42:16;12.40;;;6.05;;
65599;SDS011;52272;-29.642;-50.764;2022-08-25T04:44:47;9.98;;;6.20;;
65599;SDS011;52272;-29.642;-50.764;2022-08-25T04:47:18;13.07;;;6.50;;
65599;SDS011;52272;-29.642;-50.764;2022-08-25T04:49:48;10.93;;;6.80;;
65599;SDS011;52272;-29.642;-50.764;2022-08-25T04:52:19;11.88;;;7.10;;
65599;SDS011;52272;-29.642;-50.764;2022-08-25T04:54:49;12.55;;;6.63;;
65599;SDS011;52272;-29.642;-50.764;2022-08-25T04:57:19;9.88;;;6.80;;
65599;SDS011;52272;-29.642;-50.764;2022-08-25T04:59:50;8.70;;;6.07;;
65599;SDS011;52272;-29.642;-50.764;2022-08-25T05:02:21;9.63;;;6.25;;
65599;SDS011;52272;-29.642;-50.764;2022-08-25T05:04:53;10.20;;;6.40;;
65599;SDS011;52272;-29.642;-50.764;2022-08-25T05:07:24;8.90;;;5.75;;
65599;SDS011;52272;-29.642;-50.764;2022-08-25T05:09:54;10.38;;;6.13;;
65599;SDS011;52272;-29.642;-50.764;2022-08-25T05:12:24;11.60;;;6.82;;
65599;SDS011;52272;-29.642;-50.764;2022-08-25T05:14:55;9.77;;;6.53;;
65599;SDS011;52272;-29.642;-50.764;2022-08-25T05:17:46;9.50;;;6.07;;
65599;SDS011;52272;-29.642;-50.764;2022-08-25T05:20:22;10.27;;;5.95;;
65599;SDS011;52272;-29.642;-50.764;2022-08-25T05:22:53;9.88;;;6.78;;
65599;SDS011;52272;-29.642;-50.764;2022-08-25T05:25:23;9.98;;;6.03;;
65599;SDS011;52272;-29.642;-50.764;2022-08-25T05:27:54;9.63;;;6.25;;
65599;SDS011;52272;-29.642;-50.764;2022-08-25T05:30:25;9.57;;;6.28;;
65599;SDS011;52272;-29.642;-50.764;2022-08-25T05:32:56;10.07;;;6.68;;
65599;SDS011;52272;-29.642;-50.764;2022-08-25T05:35:26;10.73;;;6.60;;
65599;SDS011;52272;-29.642;-50.764;2022-08-25T05:37:56;9.40;;;7.03;;
65599;SDS011;52272;-29.642;-50.764;2022-08-25T05:40:26;8.32;;;6.40;;
65599;SDS011;52272;-29.642;-50.764;2022-08-25T05:42:57;12.95;;;7.18;;
65599;SDS011;52272;-29.642;-50.764;2022-08-25T05:45:27;10.40;;;6.53;;
65599;SDS011;52272;-29.642;-50.764;2022-08-25T05:47:58;10.75;;;7.55;;
65599;SDS011;52272;-29.642;-50.764;2022-08-25T05:50:28;14.85;;;7.60;;
65599;SDS011;52272;-29.642;-50.764;2022-08-25T05:52:59;12.25;;;7.45;;
65599;SDS011;52272;-29.642;-50.764;2022-08-25T05:55:30;15.43;;;8.82;;
65599;SDS011;52272;-29.642;-50.764;2022-08-25T05:58:00;12.75;;;7.10;;
65599;SDS011;52272;-29.642;-50.764;2022-08-25T06:00:31;10.57;;;7.35;;
65599;SDS011;52272;-29.642;-50.764;2022-08-25T06:03:01;12.40;;;7.18;;
65599;SDS011;52272;-29.642;-50.764;2022-08-25T06:05:32;10.70;;;6.60;;
65599;SDS011;52272;-29.642;-50.764;2022-08-25T06:08:03;8.77;;;6.25;;
65599;SDS011;52272;-29.642;-50.764;2022-08-25T06:10:33;9.15;;;6.38;;
65599;SDS011;52272;-29.642;-50.764;2022-08-25T06:13:04;9.15;;;6.30;;
65599;SDS011;52272;-29.642;-50.764;2022-08-25T06:15:34;20.30;;;7.68;;
65599;SDS011;52272;-29.642;-50.764;2022-08-25T06:18:04;8.75;;;6.28;;
65599;SDS011;52272;-29.642;-50.764;2022-08-25T06:20:35;9.10;;;5.95;;
65599;SDS011;52272;-29.642;-50.764;2022-08-25T06:23:05;11.02;;;6.18;;
65599;SDS011;52272;-29.642;-50.764;2022-08-25T06:25:35;10.85;;;6.75;;
65599;SDS011;52272;-29.642;-50.764;2022-08-25T06:30:35;9.10;;;5.65;;
65599;SDS011;52272;-29.642;-50.764;2022-08-25T06:33:07;9.93;;;6.32;;
65599;SDS011;52272;-29.642;-50.764;2022-08-25T06:35:40;9.80;;;6.40;;
65599;SDS011;52272;-29.642;-50.764;2022-08-25T06:38:12;12.75;;;6.85;;
65599;SDS011;52272;-29.642;-50.764;2022-08-25T06:40:45;10.95;;;7.10;;
65599;SDS011;52272;-29.642;-50.764;2022-08-25T06:43:17;11.63;;;8.07;;
65599;SDS011;52272;-29.642;-50.764;2022-08-25T06:45:48;14.15;;;8.20;;
65599;SDS011;52272;-29.642;-50.764;2022-08-25T06:48:19;11.85;;;7.70;;
65599;SDS011;52272;-29.642;-50.764;2022-08-25T06:50:52;13.10;;;7.50;;
65599;SDS011;52272;-29.642;-50.764;2022-08-25T06:53:22;11.18;;;6.15;;
65599;SDS011;52272;-29.642;-50.764;2022-08-25T06:58:33;9.57;;;6.88;;
65599;SDS011;52272;-29.642;-50.764;2022-08-25T07:01:12;10.20;;;6.55;;
65599;SDS011;52272;-29.642;-50.764;2022-08-25T07:03:48;9.18;;;6.55;;
65599;SDS011;52272;-29.642;-50.764;2022-08-25T07:06:22;12.40;;;7.55;;
65599;SDS011;52272;-29.642;-50.764;2022-08-25T07:08:54;12.93;;;7.47;;
65599;SDS011;52272;-29.642;-50.764;2022-08-25T07:11:24;11.30;;;7.25;;
65599;SDS011;52272;-29.642;-50.764;2022-08-25T07:13:55;11.10;;;7.20;;
65599;SDS011;52272;-29.642;-50.764;2022-08-25T07:16:25;10.32;;;7.05;;
65599;SDS011;52272;-29.642;-50.764;2022-08-25T07:18:58;15.13;;;7.28;;
65599;SDS011;52272;-29.642;-50.764;2022-08-25T07:21:30;14.27;;;7.53;;
65599;SDS011;52272;-29.642;-50.764;2022-08-25T07:24:03;15.48;;;8.50;;
65599;SDS011;52272;-29.642;-50.764;2022-08-25T07:26:38;11.80;;;8.10;;
65599;SDS011;52272;-29.642;-50.764;2022-08-25T07:29:14;13.38;;;7.43;;
65599;SDS011;52272;-29.642;-50.764;2022-08-25T07:31:46;12.07;;;7.18;;
65599;SDS011;52272;-29.642;-50.764;2022-08-25T07:34:19;11.50;;;6.90;;
65599;SDS011;52272;-29.642;-50.764;2022-08-25T07:37:10;10.95;;;7.70;;
65599;SDS011;52272;-29.642;-50.764;2022-08-25T07:40:01;11.88;;;7.65;;
65599;SDS011;52272;-29.642;-50.764;2022-08-25T07:42:32;12.70;;;7.85;;
65599;SDS011;52272;-29.642;-50.764;2022-08-25T07:45:05;12.82;;;7.75;;
65599;SDS011;52272;-29.642;-50.764;2022-08-25T07:47:36;11.15;;;7.93;;
65599;SDS011;52272;-29.642;-50.764;2022-08-25T07:50:09;12.60;;;8.00;;
65599;SDS011;52272;-29.642;-50.764;2022-08-25T07:52:41;11.30;;;7.47;;
65599;SDS011;52272;-29.642;-50.764;2022-08-25T07:55:21;11.40;;;7.70;;
65599;SDS011;52272;-29.642;-50.764;2022-08-25T07:57:52;11.60;;;7.63;;
65599;SDS011;52272;-29.642;-50.764;2022-08-25T08:00:25;10.15;;;7.25;;
65599;SDS011;52272;-29.642;-50.764;2022-08-25T08:02:58;14.27;;;8.52;;
65599;SDS011;52272;-29.642;-50.764;2022-08-25T08:05:31;12.82;;;8.38;;
65599;SDS011;52272;-29.642;-50.764;2022-08-25T08:08:03;11.98;;;7.70;;
65599;SDS011;52272;-29.642;-50.764;2022-08-25T08:10:37;12.15;;;8.00;;
65599;SDS011;52272;-29.642;-50.764;2022-08-25T08:13:28;12.70;;;8.27;;
65599;SDS011;52272;-29.642;-50.764;2022-08-25T08:15:59;13.73;;;8.48;;
65599;SDS011;52272;-29.642;-50.764;2022-08-25T08:18:32;13.00;;;8.68;;
65599;SDS011;52272;-29.642;-50.764;2022-08-25T08:21:03;14.23;;;8.68;;
65599;SDS011;52272;-29.642;-50.764;2022-08-25T08:23:35;13.10;;;8.63;;
65599;SDS011;52272;-29.642;-50.764;2022-08-25T08:26:05;12.93;;;8.30;;
65599;SDS011;52272;-29.642;-50.764;2022-08-25T08:28:36;13.23;;;8.10;;
65599;SDS011;52272;-29.642;-50.764;2022-08-25T08:31:07;12.73;;;8.63;;
65599;SDS011;52272;-29.642;-50.764;2022-08-25T08:33:38;12.73;;;8.32;;
65599;SDS011;52272;-29.642;-50.764;2022-08-25T08:36:09;14.95;;;8.82;;
65599;SDS011;52272;-29.642;-50.764;2022-08-25T08:38:42;13.48;;;8.90;;
65599;SDS011;52272;-29.642;-50.764;2022-08-25T08:41:23;13.95;;;8.98;;
65599;SDS011;52272;-29.642;-50.764;2022-08-25T08:55:47;13.93;;;8.32;;
65599;SDS011;52272;-29.642;-50.764;2022-08-25T08:58:21;14.43;;;8.32;;
65599;SDS011;52272;-29.642;-50.764;2022-08-25T09:00:54;15.60;;;8.93;;
65599;SDS011;52272;-29.642;-50.764;2022-08-25T09:06:17;13.70;;;9.20;;
65599;SDS011;52272;-29.642;-50.764;2022-08-25T09:08:53;12.93;;;8.77;;
65599;SDS011;52272;-29.642;-50.764;2022-08-25T09:28:22;15.02;;;9.38;;
65599;SDS011;52272;-29.642;-50.764;2022-08-25T09:34:12;16.02;;;9.38;;
65599;SDS011;52272;-29.642;-50.764;2022-08-25T09:36:47;18.17;;;9.18;;
65599;SDS011;52272;-29.642;-50.764;2022-08-25T09:39:21;14.43;;;9.90;;
65599;SDS011;52272;-29.642;-50.764;2022-08-25T09:41:54;13.60;;;8.80;;
65599;SDS011;52272;-29.642;-50.764;2022-08-25T09:44:30;15.02;;;9.95;;
65599;SDS011;52272;-29.642;-50.764;2022-08-25T09:47:05;13.18;;;9.13;;
65599;SDS011;52272;-29.642;-50.764;2022-08-25T09:49:58;14.88;;;9.35;;
65599;SDS011;52272;-29.642;-50.764;2022-08-25T09:52:38;18.63;;;9.48;;
65599;SDS011;52272;-29.642;-50.764;2022-08-25T10:00:15;16.10;;;9.68;;
65599;SDS011;52272;-29.642;-50.764;2022-08-25T10:11:00;12.90;;;8.63;;
65599;SDS011;52272;-29.642;-50.764;2022-08-25T10:13:45;13.57;;;8.98;;
65599;SDS011;52272;-29.642;-50.764;2022-08-25T10:16:24;14.50;;;9.15;;
65599;SDS011;52272;-29.642;-50.764;2022-08-25T10:19:04;15.25;;;9.57;;
65599;SDS011;52272;-29.642;-50.764;2022-08-25T10:21:41;14.95;;;9.77;;
65599;SDS011;52272;-29.642;-50.764;2022-08-25T10:24:12;14.68;;;10.23;;
65599;SDS011;52272;-29.642;-50.764;2022-08-25T10:32:58;14.98;;;9.25;;
65599;SDS011;52272;-29.642;-50.764;2022-08-25T10:49:20;16.35;;;9.75;;
65599;SDS011;52272;-29.642;-50.764;2022-08-25T10:52:01;15.32;;;10.38;;
65599;SDS011;52272;-29.642;-50.764;2022-08-25T10:54:41;13.70;;;9.07;;
65599;SDS011;52272;-29.642;-50.764;2022-08-25T10:57:29;13.82;;;9.02;;
65599;SDS011;52272;-29.642;-50.764;2022-08-25T11:03:01;16.20;;;9.35;;
65599;SDS011;52272;-29.642;-50.764;2022-08-25T11:05:55;15.43;;;9.48;;
65599;SDS011;52272;-29.642;-50.764;2022-08-25T11:08:35;15.10;;;9.60;;
65599;SDS011;52272;-29.642;-50.764;2022-08-25T11:11:18;13.30;;;10.35;;
65599;SDS011;52272;-29.642;-50.764;2022-08-25T11:13:54;15.32;;;10.38;;
65599;SDS011;52272;-29.642;-50.764;2022-08-25T11:19:36;13.38;;;10.07;;
65599;SDS011;52272;-29.642;-50.764;2022-08-25T11:22:13;16.08;;;10.20;;
65599;SDS011;52272;-29.642;-50.764;2022-08-25T11:27:59;16.50;;;11.00;;
65599;SDS011;52272;-29.642;-50.764;2022-08-25T11:30:37;14.55;;;9.93;;
65599;SDS011;52272;-29.642;-50.764;2022-08-25T11:33:17;15.70;;;10.60;;
65599;SDS011;52272;-29.642;-50.764;2022-08-25T11:35:56;12.98;;;10.23;;
65599;SDS011;52272;-29.642;-50.764;2022-08-25T11:52:54;13.57;;;10.55;;
65599;SDS011;52272;-29.642;-50.764;2022-08-25T11:55:05;16.27;;;11.02;;
65599;SDS011;52272;-29.642;-50.764;2022-08-25T11:57:51;15.32;;;10.20;;
65599;SDS011;52272;-29.642;-50.764;2022-08-25T12:00:44;14.35;;;11.30;;
65599;SDS011;52272;-29.642;-50.764;2022-08-25T12:41:11;14.13;;;10.18;;
65599;SDS011;52272;-29.642;-50.764;2022-08-25T12:43:46;11.27;;;9.13;;
65599;SDS011;52272;-29.642;-50.764;2022-08-25T12:57:14;16.33;;;9.50;;
65599;SDS011;52272;-29.642;-50.764;2022-08-25T13:00:11;13.68;;;9.38;;
65599;SDS011;52272;-29.642;-50.764;2022-08-25T13:02:57;14.90;;;8.93;;
65599;SDS011;52272;-29.642;-50.764;2022-08-25T13:16:57;9.98;;;7.88;;
65599;SDS011;52272;-29.642;-50.764;2022-08-25T13:19:28;12.65;;;8.27;;
65599;SDS011;52272;-29.642;-50.764;2022-08-25T13:22:10;15.38;;;8.77;;
65599;SDS011;52272;-29.642;-50.764;2022-08-25T13:24:44;16.08;;;8.75;;
65599;SDS011;52272;-29.642;-50.764;2022-08-25T13:27:20;12.07;;;8.02;;
65599;SDS011;52272;-29.642;-50.764;2022-08-25T13:29:57;13.32;;;8.05;;
65599;SDS011;52272;-29.642;-50.764;2022-08-25T13:32:35;10.63;;;7.80;;
65599;SDS011;52272;-29.642;-50.764;2022-08-25T13:35:21;10.15;;;8.13;;
65599;SDS011;52272;-29.642;-50.764;2022-08-25T13:38:12;12.55;;;8.75;;
65599;SDS011;52272;-29.642;-50.764;2022-08-25T13:40:44;11.40;;;7.65;;
65599;SDS011;52272;-29.642;-50.764;2022-08-25T13:43:15;13.10;;;7.68;;
65599;SDS011;52272;-29.642;-50.764;2022-08-25T13:45:54;11.02;;;7.85;;
65599;SDS011;52272;-29.642;-50.764;2022-08-25T13:48:34;11.90;;;8.00;;
65599;SDS011;52272;-29.642;-50.764;2022-08-25T13:53:49;10.15;;;7.55;;
65599;SDS011;52272;-29.642;-50.764;2022-08-25T13:56:29;12.27;;;7.95;;
65599;SDS011;52272;-29.642;-50.764;2022-08-25T13:59:23;11.63;;;8.68;;
65599;SDS011;52272;-29.642;-50.764;2022-08-25T14:01:55;11.70;;;7.68;;
65599;SDS011;52272;-29.642;-50.764;2022-08-25T14:04:43;14.45;;;8.57;;
65599;SDS011;52272;-29.642;-50.764;2022-08-25T14:10:18;13.50;;;8.27;;
65599;SDS011;52272;-29.642;-50.764;2022-08-25T14:13:06;13.63;;;7.68;;
65599;SDS011;52272;-29.642;-50.764;2022-08-25T14:15:46;9.77;;;7.63;;
65599;SDS011;52272;-29.642;-50.764;2022-08-25T14:18:27;12.43;;;7.97;;
65599;SDS011;52272;-29.642;-50.764;2022-08-25T14:21:01;9.45;;;7.18;;
65599;SDS011;52272;-29.642;-50.764;2022-08-25T14:23:39;10.50;;;8.05;;
65599;SDS011;52272;-29.642;-50.764;2022-08-25T14:26:11;11.07;;;7.65;;
65599;SDS011;52272;-29.642;-50.764;2022-08-25T14:28:41;11.02;;;7.47;;
65599;SDS011;52272;-29.642;-50.764;2022-08-25T14:31:13;9.15;;;7.20;;
65599;SDS011;52272;-29.642;-50.764;2022-08-25T14:33:51;9.57;;;7.32;;
65599;SDS011;52272;-29.642;-50.764;2022-08-25T14:36:27;8.75;;;7.53;;
65599;SDS011;52272;-29.642;-50.764;2022-08-25T14:38:58;9.65;;;7.68;;
65599;SDS011;52272;-29.642;-50.764;2022-08-25T14:41:37;14.05;;;7.40;;
65599;SDS011;52272;-29.642;-50.764;2022-08-25T14:44:20;10.93;;;8.43;;
65599;SDS011;52272;-29.642;-50.764;2022-08-25T14:46:54;10.75;;;7.70;;
65599;SDS011;52272;-29.642;-50.764;2022-08-25T14:49:28;13.38;;;8.68;;
65599;SDS011;52272;-29.642;-50.764;2022-08-25T14:52:07;9.88;;;7.20;;
65599;SDS011;52272;-29.642;-50.764;2022-08-25T14:54:44;11.55;;;7.57;;
65599;SDS011;52272;-29.642;-50.764;2022-08-25T14:57:15;11.80;;;7.95;;
65599;SDS011;52272;-29.642;-50.764;2022-08-25T14:59:45;15.10;;;7.75;;
65599;SDS011;52272;-29.642;-50.764;2022-08-25T15:02:17;11.23;;;7.30;;
65599;SDS011;52272;-29.642;-50.764;2022-08-25T15:04:58;9.75;;;7.32;;
65599;SDS011;52272;-29.642;-50.764;2022-08-25T15:07:34;10.20;;;8.00;;
65599;SDS011;52272;-29.642;-50.764;2022-08-25T15:10:22;10.45;;;6.97;;
65599;SDS011;52272;-29.642;-50.764;2022-08-25T15:12:53;9.60;;;6.28;;
65599;SDS011;52272;-29.642;-50.764;2022-08-25T15:15:25;10.85;;;6.63;;
65599;SDS011;52272;-29.642;-50.764;2022-08-25T15:17:57;7.38;;;6.15;;
65599;SDS011;52272;-29.642;-50.764;2022-08-25T15:20:28;9.98;;;6.15;;
65599;SDS011;52272;-29.642;-50.764;2022-08-25T15:22:59;12.52;;;6.88;;
65599;SDS011;52272;-29.642;-50.764;2022-08-25T15:25:29;7.45;;;5.80;;
65599;SDS011;52272;-29.642;-50.764;2022-08-25T15:28:05;9.07;;;6.32;;
65599;SDS011;52272;-29.642;-50.764;2022-08-25T15:30:37;8.95;;;7.38;;
65599;SDS011;52272;-29.642;-50.764;2022-08-25T15:33:13;9.93;;;6.47;;
65599;SDS011;52272;-29.642;-50.764;2022-08-25T15:35:44;7.85;;;5.47;;
65599;SDS011;52272;-29.642;-50.764;2022-08-25T15:38:17;8.95;;;6.65;;
65599;SDS011;52272;-29.642;-50.764;2022-08-25T15:40:48;8.27;;;6.07;;
65599;SDS011;52272;-29.642;-50.764;2022-08-25T15:43:19;7.78;;;5.68;;
65599;SDS011;52272;-29.642;-50.764;2022-08-25T15:45:52;7.03;;;5.78;;
65599;SDS011;52272;-29.642;-50.764;2022-08-25T15:48:23;7.88;;;5.85;;
65599;SDS011;52272;-29.642;-50.764;2022-08-25T15:50:54;10.00;;;5.88;;
65599;SDS011;52272;-29.642;-50.764;2022-08-25T15:53:27;9.35;;;6.82;;
65599;SDS011;52272;-29.642;-50.764;2022-08-25T15:55:57;8.77;;;5.72;;
65599;SDS011;52272;-29.642;-50.764;2022-08-25T15:58:34;7.28;;;5.03;;
65599;SDS011;52272;-29.642;-50.764;2022-08-25T16:01:17;7.72;;;5.35;;
65599;SDS011;52272;-29.642;-50.764;2022-08-25T16:06:23;6.38;;;5.10;;
65599;SDS011;52272;-29.642;-50.764;2022-08-25T16:08:54;7.00;;;5.50;;
65599;SDS011;52272;-29.642;-50.764;2022-08-25T16:11:28;6.03;;;5.20;;
65599;SDS011;52272;-29.642;-50.764;2022-08-25T16:13:59;7.55;;;5.32;;
65599;SDS011;52272;-29.642;-50.764;2022-08-25T16:16:30;6.18;;;5.05;;
65599;SDS011;52272;-29.642;-50.764;2022-08-25T16:19:02;6.60;;;5.30;;
65599;SDS011;52272;-29.642;-50.764;2022-08-25T16:21:36;5.55;;;5.00;;
65599;SDS011;52272;-29.642;-50.764;2022-08-25T16:24:15;7.00;;;5.22;;
65599;SDS011;52272;-29.642;-50.764;2022-08-25T16:26:46;8.25;;;4.97;;
65599;SDS011;52272;-29.642;-50.764;2022-08-25T16:29:19;5.90;;;4.90;;
65599;SDS011;52272;-29.642;-50.764;2022-08-25T16:31:50;5.85;;;5.22;;
65599;SDS011;52272;-29.642;-50.764;2022-08-25T16:34:24;6.65;;;4.70;;
65599;SDS011;52272;-29.642;-50.764;2022-08-25T16:36:57;7.60;;;5.10;;
65599;SDS011;52272;-29.642;-50.764;2022-08-25T16:39:28;6.88;;;5.45;;
65599;SDS011;52272;-29.642;-50.764;2022-08-25T16:41:58;6.65;;;5.03;;
65599;SDS011;52272;-29.642;-50.764;2022-08-25T16:44:29;6.10;;;5.20;;
65599;SDS011;52272;-29.642;-50.764;2022-08-25T16:46:59;7.45;;;5.10;;
65599;SDS011;52272;-29.642;-50.764;2022-08-25T16:49:30;5.78;;;5.20;;
65599;SDS011;52272;-29.642;-50.764;2022-08-25T16:52:00;5.93;;;5.38;;
65599;SDS011;52272;-29.642;-50.764;2022-08-25T16:54:55;7.55;;;5.07;;
65599;SDS011;52272;-29.642;-50.764;2022-08-25T16:57:45;8.40;;;5.63;;
65599;SDS011;52272;-29.642;-50.764;2022-08-25T17:00:21;8.40;;;5.68;;
65599;SDS011;52272;-29.642;-50.764;2022-08-25T17:02:54;11.50;;;6.30;;
65599;SDS011;52272;-29.642;-50.764;2022-08-25T17:05:28;9.68;;;6.22;;
65599;SDS011;52272;-29.642;-50.764;2022-08-25T17:07:59;8.35;;;5.75;;
65599;SDS011;52272;-29.642;-50.764;2022-08-25T17:10:48;7.53;;;6.13;;
65599;SDS011;52272;-29.642;-50.764;2022-08-25T17:13:19;9.10;;;5.78;;
65599;SDS011;52272;-29.642;-50.764;2022-08-25T17:15:50;7.50;;;5.88;;
65599;SDS011;52272;-29.642;-50.764;2022-08-25T17:18:20;11.00;;;6.13;;
65599;SDS011;52272;-29.642;-50.764;2022-08-25T17:21:01;8.02;;;5.55;;
65599;SDS011;52272;-29.642;-50.764;2022-08-25T17:23:36;9.38;;;6.35;;
65599;SDS011;52272;-29.642;-50.764;2022-08-25T17:26:07;14.00;;;5.72;;
65599;SDS011;52272;-29.642;-50.764;2022-08-25T17:28:41;8.90;;;5.80;;
65599;SDS011;52272;-29.642;-50.764;2022-08-25T17:31:13;8.95;;;5.57;;
65599;SDS011;52272;-29.642;-50.764;2022-08-25T17:33:43;8.88;;;5.70;;
65599;SDS011;52272;-29.642;-50.764;2022-08-25T17:36:15;12.45;;;6.47;;
65599;SDS011;52272;-29.642;-50.764;2022-08-25T17:38:54;7.90;;;5.88;;
65599;SDS011;52272;-29.642;-50.764;2022-08-25T17:41:25;9.13;;;6.15;;
65599;SDS011;52272;-29.642;-50.764;2022-08-25T17:43:56;12.98;;;6.03;;
65599;SDS011;52272;-29.642;-50.764;2022-08-25T17:46:27;9.07;;;6.05;;
65599;SDS011;52272;-29.642;-50.764;2022-08-25T17:48:58;9.68;;;6.00;;